Time;durP1;ratioP1;P1;durP2;ratioP2;P2;SDS_P1;SDS_P2;PMS_P1;PMS_P2;Temp;Humidity;BMP_temperature;BMP_pressure;BME280_temperature;BME280_humidity;BME280_pressure;Samples;Min_cycle;Max_cycle;Signal;HPM_P1;HPM_P2
2022/08/29 00:01:20;;;;;;;6.57;3.33;;;16.50;99.90;;;15.90;100.00;101254.97;5097372;23;20009;-75
2022/08/29 00:03:21;;;;;;;3.60;2.22;;;16.60;99.90;;;16.06;100.00;101285.97;5122885;23;20519;-75
2022/08/29 00:05:28;;;;;;;7.22;2.42;;;16.60;99.90;;;16.07;100.00;101274.28;5120900;23;20417;-75
2022/08/29 00:07:29;;;;;;;5.60;3.25;;;16.60;99.90;;;15.95;100.00;101255.25;5097058;23;20073;-75
2022/08/29 00:09:30;;;;;;;5.43;3.10;;;16.60;99.90;;;15.92;100.00;101252.13;5122913;23;20035;-76
2022/08/29 00:11:31;;;;;;;6.18;2.85;;;16.60;99.90;;;15.92;100.00;101236.16;5122962;23;20006;-75
2022/08/29 00:13:34;;;;;;;4.35;2.85;;;16.60;99.90;;;16.15;100.00;101276.09;5096759;23;20434;-75
2022/08/29 00:15:36;;;;;;;8.15;2.90;;;16.60;99.90;;;15.96;100.00;101237.47;5121206;23;20009;-75
2022/08/29 00:17:37;;;;;;;7.30;3.17;;;16.60;99.90;;;15.97;100.00;101241.78;5122861;23;20009;-75
2022/08/29 00:19:38;;;;;;;6.38;2.58;;;16.70;99.90;;;15.95;100.00;101239.28;5120767;23;20330;-75
2022/08/29 00:21:39;;;;;;;3.75;2.50;;;16.60;99.90;;;15.98;100.00;101254.91;5096597;23;20064;-75
2022/08/29 00:23:42;;;;;;;6.97;2.95;;;16.60;99.90;;;16.11;100.00;101267.63;5096819;23;20006;-75
2022/08/29 00:25:44;;;;;;;7.07;2.60;;;16.60;99.90;;;15.97;100.00;101244.47;5098288;23;20017;-75
2022/08/29 00:27:45;;;;;;;5.35;2.90;;;16.60;99.90;;;16.13;100.00;101265.59;5124345;23;20012;-75
2022/08/29 00:29:46;;;;;;;8.05;3.35;;;16.60;99.90;;;15.95;100.00;101235.81;5124360;23;20033;-75
2022/08/29 00:31:47;;;;;;;6.20;2.90;;;16.60;99.90;;;15.94;100.00;101237.66;5124494;23;20001;-75
2022/08/29 00:33:50;;;;;;;6.45;2.85;;;16.60;99.90;;;15.98;100.00;101251.41;5098141;23;20085;-75
2022/08/29 00:35:50;;;;;;;4.53;2.80;;;16.60;99.90;;;15.96;100.00;101253.44;5124290;23;20005;-75
2022/08/29 00:37:53;;;;;;;5.75;3.00;;;16.60;99.90;;;16.01;100.00;101265.19;5098220;23;20057;-75
2022/08/29 00:39:54;;;;;;;8.20;2.75;;;16.60;99.90;;;15.98;100.00;101264.72;5124224;23;20077;-75
2022/08/29 00:41:55;;;;;;;5.50;3.30;;;16.60;99.90;;;15.93;100.00;101248.47;5098327;23;20006;-75
2022/08/29 00:43:56;;;;;;;6.32;2.95;;;16.50;99.90;;;16.01;100.00;101253.72;5122565;23;20524;-75
2022/08/29 00:46:16;;;;;;;5.32;3.42;;;16.50;99.90;;;16.04;100.00;101269.31;5073429;23;20073;-75
2022/08/29 00:48:18;;;;;;;7.47;3.72;;;16.50;99.90;;;15.90;100.00;101244.34;5124586;23;20359;-75
2022/08/29 00:50:41;;;;;;;5.72;3.15;;;16.50;99.90;;;15.83;100.00;101240.72;5123891;23;20449;-75
2022/08/29 00:52:45;;;;;;;5.38;2.50;;;16.50;99.90;;;15.80;100.00;101232.28;5098435;23;20473;-75
2022/08/29 00:54:50;;;;;;;7.45;3.20;;;16.40;99.90;;;15.79;100.00;101235.94;5124113;23;20322;-75
2022/08/29 00:56:53;;;;;;;5.00;3.33;;;16.40;99.90;;;15.85;100.00;101249.38;5124050;23;20009;-75
2022/08/29 00:59:02;;;;;;;5.70;3.45;;;16.40;99.90;;;15.74;100.00;101225.03;5098061;23;20013;-75
2022/08/29 01:01:04;;;;;;;4.78;3.22;;;16.40;99.90;;;15.86;100.00;101255.53;5124043;23;20005;-75
2022/08/29 01:03:07;;;;;;;5.95;3.10;;;16.40;99.90;;;15.74;100.00;101233.00;5097712;23;20091;-75
2022/08/29 01:05:14;;;;;;;4.97;2.75;;;16.40;99.90;;;15.64;100.00;101224.41;5097618;23;20488;-75
2022/08/29 01:07:15;;;;;;;5.32;3.22;;;16.30;99.90;;;15.66;100.00;101230.38;5098199;23;20013;-75
2022/08/29 01:09:16;;;;;;;8.88;3.35;;;16.30;99.90;;;15.60;100.00;101221.28;5097929;23;20009;-75
2022/08/29 01:13:42;;;;;;;5.13;2.70;;;16.30;99.90;;;15.65;100.00;101252.69;5101819;23;20011;-75
2022/08/29 01:15:45;;;;;;;10.73;4.18;;;16.20;99.90;;;15.48;100.00;101228.84;5098136;23;20077;-75
2022/08/29 01:17:48;;;;;;;5.05;2.97;;;16.20;99.90;;;15.65;100.00;101263.31;5098280;23;20009;-75
2022/08/29 01:20:12;;;;;;;8.23;3.45;;;16.10;99.90;;;15.55;100.00;101249.41;5123708;23;20096;-75
2022/08/29 01:22:59;;;;;;;5.45;3.05;;;16.10;99.90;;;15.61;100.00;101259.34;5099514;23;20017;-75
2022/08/29 01:25:11;;;;;;;6.07;3.08;;;16.10;99.90;;;15.47;100.00;101237.00;5024489;23;20011;-75
2022/08/29 01:27:13;;;;;;;12.25;3.35;;;16.10;99.90;;;15.54;100.00;101247.75;5071868;23;20032;-75
2022/08/29 01:29:15;;;;;;;6.13;3.10;;;16.10;99.90;;;15.53;100.00;101243.44;5098038;23;20081;-75
2022/08/29 01:31:23;;;;;;;6.13;3.17;;;16.10;99.90;;;15.38;100.00;101216.75;5123834;23;20337;-75
2022/08/29 01:33:26;;;;;;;7.13;3.55;;;16.00;99.90;;;15.33;100.00;101209.28;5123823;23;20425;-75
2022/08/29 01:35:27;;;;;;;5.40;2.92;;;16.10;99.90;;;15.55;100.00;101244.09;5123476;23;20075;-75
2022/08/29 01:37:33;;;;;;;7.13;3.05;;;16.00;99.90;;;15.37;100.00;101215.09;5097858;23;20093;-75
2022/08/29 01:39:38;;;;;;;7.35;3.60;;;16.00;99.90;;;15.38;100.00;101222.88;5097884;23;20400;-75
2022/08/29 01:41:40;;;;;;;4.80;2.70;;;16.00;99.90;;;15.34;100.00;101221.59;5123618;23;20388;-75
2022/08/29 01:43:50;;;;;;;7.55;3.55;;;16.00;99.90;;;15.35;100.00;101219.78;5097841;23;20009;-75
2022/08/29 01:45:52;;;;;;;8.77;3.55;;;15.90;99.90;;;15.31;100.00;101221.94;5073265;23;20017;-75
2022/08/29 01:47:53;;;;;;;6.65;3.65;;;15.90;99.90;;;15.37;100.00;101231.03;5097654;23;20028;-75
2022/08/29 01:49:55;;;;;;;6.72;3.17;;;15.90;99.90;;;15.34;100.00;101234.88;5097319;23;20357;-75
2022/08/29 01:51:56;;;;;;;6.55;3.05;;;15.90;99.90;;;15.11;100.00;101202.13;5097579;23;20082;-75
2022/08/29 01:53:57;;;;;;;6.95;3.28;;;15.80;99.90;;;15.06;100.00;101193.81;5123785;23;20001;-75
2022/08/29 01:55:58;;;;;;;7.25;3.33;;;15.80;99.90;;;15.06;100.00;101204.47;5124064;23;20024;-75
2022/08/29 01:57:59;;;;;;;6.72;3.67;;;15.80;99.90;;;15.10;100.00;101213.75;5123737;23;20013;-75
2022/08/29 02:00:01;;;;;;;7.68;3.72;;;15.80;99.90;;;15.29;100.00;101239.06;5097836;23;20053;-75
2022/08/29 02:02:18;;;;;;;6.25;3.90;;;15.80;99.90;;;15.22;100.00;101225.66;5097427;23;20373;-75
2022/08/29 02:04:19;;;;;;;5.32;3.47;;;15.80;99.90;;;15.08;100.00;101199.81;5099280;23;20009;-75
2022/08/29 02:06:20;;;;;;;9.65;3.33;;;15.80;99.90;;;15.05;100.00;101200.16;5072721;23;20042;-75
2022/08/29 02:08:22;;;;;;;4.40;2.95;;;15.80;99.90;;;15.03;100.00;101194.19;5072927;23;20040;-75
2022/08/29 02:10:23;;;;;;;6.15;3.78;;;15.80;99.90;;;15.06;100.00;101200.97;5123623;23;20001;-75
2022/08/29 02:12:25;;;;;;;8.02;3.50;;;15.80;99.90;;;15.10;100.00;101200.47;5098165;23;20069;-75
2022/08/29 02:14:26;;;;;;;7.63;3.72;;;15.70;99.90;;;15.19;100.00;101223.34;5123649;23;20314;-75
2022/08/29 02:16:27;;;;;;;3.83;3.17;;;15.80;99.90;;;15.08;100.00;101204.31;5097469;23;20005;-75
2022/08/29 02:18:28;;;;;;;6.85;3.67;;;15.80;99.90;;;15.09;100.00;101204.13;5097404;23;20006;-75
2022/08/29 02:20:31;;;;;;;8.07;3.67;;;15.80;99.90;;;15.25;100.00;101229.78;5121518;23;20064;-75
2022/08/29 02:22:32;;;;;;;7.18;3.53;;;15.80;99.90;;;15.07;100.00;101197.31;5123630;23;20464;-75
2022/08/29 02:24:33;;;;;;;7.78;3.47;;;15.80;99.90;;;15.05;100.00;101197.50;5097152;23;20006;-75
2022/08/29 02:26:34;;;;;;;8.05;3.95;;;15.70;99.90;;;15.01;100.00;101190.03;5123606;23;20071;-75
2022/08/29 02:28:36;;;;;;;5.97;3.33;;;15.70;99.90;;;15.09;100.00;101201.44;5123397;23;20001;-75
2022/08/29 02:30:41;;;;;;;5.03;3.50;;;15.70;99.90;;;15.10;100.00;101199.63;5097240;23;20005;-75
2022/08/29 02:32:42;;;;;;;9.18;4.05;;;15.70;99.90;;;14.95;100.00;101173.81;5072901;23;20002;-75
2022/08/29 02:34:44;;;;;;;11.35;3.92;;;15.70;99.90;;;15.14;100.00;101198.28;5097035;23;20008;-75
2022/08/29 02:36:45;;;;;;;7.15;4.10;;;15.70;99.90;;;14.96;100.00;101178.09;5097243;23;20008;-75
2022/08/29 02:38:46;;;;;;;8.85;3.58;;;15.70;99.90;;;15.06;100.00;101200.97;5123368;23;20001;-75
2022/08/29 02:40:49;;;;;;;6.78;3.35;;;15.70;99.90;;;15.15;100.00;101211.38;5097284;23;20005;-75
2022/08/29 02:42:50;;;;;;;7.60;3.97;;;15.70;99.90;;;15.09;100.00;101192.66;5097439;23;20076;-75
2022/08/29 02:44:51;;;;;;;7.03;3.10;;;15.70;99.90;;;15.09;100.00;101201.44;5097131;23;20009;-75
2022/08/29 02:46:51;;;;;;;6.25;2.88;;;15.70;99.90;;;14.93;100.00;101178.44;5097278;23;20013;-75
2022/08/29 02:48:53;;;;;;;5.60;3.15;;;15.70;99.90;;;15.05;100.00;101202.81;5097020;23;20005;-75
2022/08/29 02:50:57;;;;;;;6.78;4.10;;;15.70;99.90;;;15.10;100.00;101202.28;5097314;23;20416;-75
2022/08/29 02:52:59;;;;;;;6.95;3.38;;;15.70;99.90;;;15.09;100.00;101196.13;5072931;23;20010;-75
2022/08/29 02:55:00;;;;;;;5.18;3.28;;;15.70;99.90;;;15.00;100.00;101188.38;5097128;23;20009;-75
2022/08/29 02:57:02;;;;;;;6.18;3.83;;;15.70;99.90;;;15.04;100.00;101190.53;5097201;23;20457;-75
2022/08/29 02:59:04;;;;;;;8.75;3.42;;;15.70;99.90;;;15.10;100.00;101203.13;5097257;23;20018;-75
2022/08/29 03:01:05;;;;;;;7.00;3.83;;;15.60;99.90;;;15.00;100.00;101185.72;5097190;23;20013;-75
2022/08/29 03:03:06;;;;;;;8.55;4.15;;;15.70;99.90;;;15.03;100.00;101188.88;5123325;23;20005;-75
2022/08/29 03:05:08;;;;;;;6.70;3.85;;;15.70;99.90;;;14.92;100.00;101168.84;5096645;23;20039;-75
2022/08/29 03:07:09;;;;;;;7.78;3.75;;;15.70;99.90;;;14.88;100.00;101172.84;5123177;23;20005;-75
2022/08/29 03:09:10;;;;;;;5.63;3.03;;;15.60;99.90;;;15.04;100.00;101198.50;5123038;23;20455;-75
2022/08/29 03:11:12;;;;;;;5.68;4.10;;;15.60;99.90;;;14.85;100.00;101172.34;5096903;23;20061;-75
2022/08/29 03:13:13;;;;;;;5.38;3.22;;;15.60;99.90;;;14.84;100.00;101166.19;5123074;23;20001;-75
2022/08/29 03:15:15;;;;;;;6.47;3.25;;;15.60;99.90;;;14.76;100.00;101158.28;5123280;23;20016;-75
2022/08/29 03:17:16;;;;;;;7.00;3.72;;;15.50;99.90;;;14.91;100.00;101182.28;5123048;23;20005;-75
2022/08/29 03:19:17;;;;;;;10.30;4.15;;;15.50;99.90;;;14.81;100.00;101165.75;5096385;23;20068;-75
2022/08/29 03:21:22;;;;;;;7.10;3.70;;;15.50;99.90;;;14.84;100.00;101174.16;5098591;23;20013;-75
2022/08/29 03:23:23;;;;;;;10.95;3.58;;;15.50;99.90;;;14.77;100.00;101156.47;5098491;23;20084;-75
2022/08/29 03:25:24;;;;;;;7.07;3.78;;;15.50;99.90;;;14.95;100.00;101186.25;5072197;23;20439;-75
2022/08/29 03:27:25;;;;;;;5.63;3.75;;;15.50;99.90;;;14.81;100.00;101163.09;5098414;23;20370;-75
2022/08/29 03:29:26;;;;;;;6.72;3.25;;;15.50;99.90;;;14.92;100.00;101179.47;5096934;23;20072;-75
2022/08/29 03:31:28;;;;;;;11.02;4.80;;;15.50;99.90;;;14.87;100.00;101173.03;5098437;23;20008;-75
2022/08/29 03:33:29;;;;;;;9.32;4.10;;;15.50;99.90;;;14.79;100.00;101157.09;5098020;23;20009;-75
2022/08/29 03:35:30;;;;;;;8.35;3.90;;;15.50;99.90;;;14.80;100.00;101158.75;5098314;23;20398;-75
2022/08/29 03:37:31;;;;;;;7.38;3.83;;;15.50;99.90;;;14.91;100.00;101177.81;5098555;23;20072;-75
2022/08/29 03:39:36;;;;;;;8.52;3.45;;;15.50;99.90;;;14.80;100.00;101159.59;5096982;23;20005;-75
2022/08/29 03:41:37;;;;;;;9.48;3.55;;;15.50;99.90;;;14.98;100.00;101193.88;5098293;23;20037;-75
2022/08/29 03:43:39;;;;;;;9.25;3.50;;;15.50;99.90;;;14.97;100.00;101194.88;5072581;23;20006;-75
2022/08/29 03:45:40;;;;;;;6.03;3.58;;;15.50;99.90;;;14.96;100.00;101185.25;5098226;23;20438;-75
2022/08/29 03:47:41;;;;;;;8.18;3.60;;;15.50;99.90;;;14.88;100.00;101179.97;5098419;23;20395;-75
2022/08/29 03:49:43;;;;;;;7.50;3.72;;;15.50;99.90;;;14.77;100.00;101165.25;5096511;23;20065;-75
2022/08/29 03:51:44;;;;;;;9.02;3.83;;;15.40;99.90;;;14.64;100.00;101142.91;5097166;23;20468;-75
2022/08/29 03:53:45;;;;;;;7.35;3.40;;;15.40;99.90;;;14.69;100.00;101159.16;5097244;23;20009;-75
2022/08/29 03:55:46;;;;;;;5.70;3.40;;;15.40;99.90;;;14.75;100.00;101166.44;5096807;23;20017;-75
2022/08/29 03:57:47;;;;;;;7.10;3.67;;;15.40;99.90;;;14.67;100.00;101147.84;5096693;23;20410;-75
2022/08/29 03:59:48;;;;;;;9.20;3.90;;;15.40;99.90;;;14.81;100.00;101165.75;5099369;23;20009;-75
2022/08/29 04:01:49;;;;;;;4.70;3.28;;;15.40;99.90;;;14.90;100.00;101167.38;5099531;23;20084;-75
2022/08/29 04:03:52;;;;;;;6.20;3.88;;;15.50;99.90;;;14.94;100.00;101176.63;5098127;23;20015;-75
2022/08/29 04:05:53;;;;;;;7.70;4.15;;;15.50;99.90;;;14.77;100.00;101156.47;5099738;23;20005;-75
2022/08/29 04:07:57;;;;;;;7.07;3.10;;;15.50;99.90;;;14.84;100.00;101162.75;5099860;23;20001;-75
2022/08/29 04:09:58;;;;;;;7.43;4.03;;;15.50;99.90;;;14.75;100.00;101154.00;5100099;23;20006;-75
2022/08/29 04:11:59;;;;;;;7.40;3.35;;;15.50;99.90;;;14.70;100.00;101148.34;5098603;23;20005;-75
2022/08/29 04:14:01;;;;;;;8.07;3.63;;;15.40;99.90;;;14.74;100.00;101170.09;5099358;23;20006;-75
2022/08/29 04:16:15;;;;;;;5.72;3.35;;;15.40;99.90;;;14.77;100.00;101175.03;5098458;23;20009;-75
2022/08/29 04:18:16;;;;;;;7.03;4.00;;;15.40;99.90;;;14.60;100.00;101146.91;5099839;23;20009;-75
2022/08/29 04:20:17;;;;;;;6.28;3.72;;;15.30;99.90;;;14.66;100.00;101168.31;5118156;23;20389;-75
2022/08/29 04:22:18;;;;;;;6.05;3.47;;;15.30;99.90;;;14.53;100.00;101143.28;5124492;23;20085;-75
2022/08/29 04:24:19;;;;;;;8.38;3.53;;;15.30;99.90;;;14.48;100.00;101148.28;5098148;23;20439;-75
2022/08/29 04:26:20;;;;;;;9.98;3.97;;;15.20;99.90;;;14.46;100.00;101139.63;5098308;23;20033;-75
2022/08/29 04:28:22;;;;;;;4.47;3.17;;;15.20;99.90;;;14.51;100.00;101154.09;5124430;23;20438;-75
2022/08/29 04:30:24;;;;;;;6.60;3.47;;;15.20;99.90;;;14.64;100.00;101175.59;5098427;23;20438;-75
2022/08/29 04:32:26;;;;;;;8.45;4.68;;;15.20;99.90;;;14.53;100.00;101161.88;5073699;23;20430;-75
2022/08/29 04:34:26;;;;;;;7.05;4.05;;;15.20;99.90;;;14.48;100.00;101150.94;5124015;23;20429;-75
2022/08/29 04:36:28;;;;;;;8.20;4.38;;;15.20;99.90;;;14.37;100.00;101145.00;5098323;23;20009;-75
2022/08/29 04:38:29;;;;;;;8.35;4.65;;;15.10;99.90;;;14.65;100.00;101182.56;5098594;23;20009;-75
2022/08/29 04:40:30;;;;;;;7.30;3.92;;;15.20;99.90;;;14.44;100.00;101157.56;5124247;23;20461;-75
2022/08/29 04:42:31;;;;;;;6.78;3.40;;;15.10;99.90;;;14.45;100.00;101164.56;5124220;23;20004;-75
2022/08/29 04:44:33;;;;;;;6.65;4.00;;;15.10;99.90;;;14.45;100.00;101164.56;5124279;23;20084;-75
2022/08/29 04:46:34;;;;;;;6.85;3.78;;;15.10;99.90;;;14.45;100.00;101160.06;5124103;23;20009;-75
2022/08/29 04:48:35;;;;;;;6.68;3.92;;;15.10;99.90;;;14.37;100.00;101152.94;5124169;23;20005;-75
2022/08/29 04:50:36;;;;;;;6.20;4.30;;;15.10;99.90;;;14.45;100.00;101167.22;5124159;23;20005;-75
2022/08/29 04:52:37;;;;;;;6.95;3.85;;;15.10;99.90;;;14.50;100.00;101180.78;5124350;23;20516;-75
2022/08/29 04:54:39;;;;;;;4.72;3.35;;;15.10;99.90;;;14.48;100.00;101172.19;5124213;23;20001;-75
2022/08/29 04:56:40;;;;;;;4.18;3.05;;;15.10;99.90;;;14.36;100.00;101161.94;5098082;23;20001;-75
2022/08/29 04:58:43;;;;;;;9.63;4.00;;;15.10;99.90;;;14.40;100.00;101173.84;5122777;23;20005;-75
2022/08/29 05:00:45;;;;;;;7.77;4.20;;;15.00;99.90;;;14.49;100.00;101193.22;5124616;23;20009;-75
2022/08/29 05:02:46;;;;;;;9.23;3.45;;;15.00;99.90;;;14.45;100.00;101194.59;5124063;23;20001;-75
2022/08/29 05:04:51;;;;;;;8.63;3.80;;;15.00;99.90;;;14.25;100.00;101164.88;5123598;23;20051;-75
2022/08/29 05:06:52;;;;;;;6.78;3.92;;;15.00;99.90;;;14.23;100.00;101166.91;5124328;23;20080;-75
2022/08/29 05:08:53;;;;;;;6.55;4.00;;;15.00;99.90;;;14.38;100.00;101190.94;5098077;23;20354;-75
2022/08/29 05:10:54;;;;;;;6.28;4.05;;;14.90;99.90;;;14.25;100.00;101174.66;5096966;23;20462;-75
2022/08/29 05:12:55;;;;;;;11.52;4.60;;;14.90;99.90;;;14.23;100.00;101174.03;5098348;23;20002;-75
2022/08/29 05:14:57;;;;;;;8.15;3.50;;;14.90;99.90;;;14.19;100.00;101168.22;5122625;23;20008;-75
2022/08/29 05:16:58;;;;;;;5.90;3.90;;;14.90;99.90;;;14.14;100.00;101164.41;5097864;23;20092;-75
2022/08/29 05:18:59;;;;;;;8.57;3.85;;;14.90;99.90;;;14.20;100.00;101177.84;5123400;23;20120;-75
2022/08/29 05:21:00;;;;;;;5.35;3.28;;;14.90;99.90;;;14.24;100.00;101188.97;5124385;23;20005;-75
2022/08/29 05:23:01;;;;;;;5.22;3.50;;;14.90;99.90;;;14.26;100.00;101193.09;5097781;23;20001;-75
2022/08/29 05:25:03;;;;;;;7.60;3.50;;;14.90;99.90;;;14.25;100.00;101194.06;5097530;23;20025;-75
2022/08/29 05:27:11;;;;;;;4.50;3.10;;;14.90;99.90;;;14.12;100.00;101177.03;5097756;23;20013;-75
2022/08/29 05:29:12;;;;;;;7.15;3.90;;;14.90;99.90;;;14.24;100.00;101203.06;5123912;23;20377;-75
2022/08/29 05:31:13;;;;;;;6.90;3.30;;;14.80;99.90;;;14.14;100.00;101193.59;5097898;23;20008;-75
2022/08/29 05:33:14;;;;;;;6.57;3.78;;;14.90;99.90;;;14.18;100.00;101206.38;5123757;23;20001;-75
2022/08/29 05:35:15;;;;;;;8.50;3.55;;;14.80;99.90;;;14.05;100.00;101187.47;5097537;23;20006;-75
2022/08/29 05:37:19;;;;;;;5.65;3.15;;;14.80;99.90;;;14.28;100.00;101227.41;5124019;23;20028;-75
2022/08/29 05:39:20;;;;;;;4.82;4.10;;;14.80;99.90;;;14.15;100.00;101212.03;5097950;23;20452;-75
2022/08/29 05:41:21;;;;;;;6.78;3.70;;;14.80;99.90;;;14.19;100.00;101226.59;5123890;23;20005;-75
2022/08/29 05:43:23;;;;;;;6.78;3.70;;;14.80;99.90;;;14.12;100.00;101203.56;5123810;23;20005;-75
2022/08/29 05:45:24;;;;;;;7.30;4.05;;;14.80;99.90;;;14.29;100.00;101229.06;5123659;23;20009;-75
2022/08/29 05:47:25;;;;;;;5.53;2.88;;;14.80;99.90;;;14.29;100.00;101229.91;5122548;23;20092;-75
2022/08/29 05:49:26;;;;;;;8.02;3.40;;;14.90;99.90;;;14.11;100.00;101194.78;5123413;23;20001;-75
2022/08/29 05:51:27;;;;;;;7.78;3.72;;;14.80;99.90;;;14.28;100.00;101228.25;5124000;23;20418;-75
2022/08/29 05:53:28;;;;;;;4.00;2.88;;;14.90;99.90;;;14.34;100.00;101224.13;5097625;23;20073;-75
2022/08/29 05:55:29;;;;;;;7.75;3.13;;;14.90;99.90;;;14.19;100.00;101189.44;5097605;23;20005;-75
2022/08/29 05:57:30;;;;;;;7.28;3.13;;;14.90;99.90;;;14.27;100.00;101207.19;5123701;23;20005;-75
2022/08/29 05:59:31;;;;;;;7.65;4.38;;;15.00;99.90;;;14.44;100.00;101221.28;5122521;23;20092;-75
2022/08/29 06:01:33;;;;;;;6.43;3.40;;;15.00;99.90;;;14.54;100.00;101229.91;5097604;23;20025;-75
2022/08/29 06:03:37;;;;;;;10.90;3.92;;;15.10;99.90;;;14.36;100.00;101191.13;5121838;23;20009;-75
2022/08/29 06:05:39;;;;;;;9.38;3.60;;;15.10;99.90;;;14.46;100.00;101204.19;5123513;23;20009;-75
2022/08/29 06:07:40;;;;;;;7.20;3.55;;;15.10;99.90;;;14.39;100.00;101182.78;5097444;23;20076;-75
2022/08/29 06:09:43;;;;;;;6.28;3.60;;;15.20;99.90;;;14.58;100.00;101220.56;5097583;23;20438;-75
2022/08/29 06:11:49;;;;;;;7.13;3.75;;;15.20;99.90;;;14.43;100.00;101177.16;5123861;23;20027;-75
2022/08/29 06:13:50;;;;;;;4.97;3.35;;;15.20;99.90;;;14.62;100.00;101203.31;5123538;23;20349;-75
2022/08/29 06:15:51;;;;;;;7.00;3.63;;;15.20;99.90;;;14.51;100.00;101174.50;5097065;23;20009;-75
2022/08/29 06:17:53;;;;;;;6.90;3.53;;;15.30;99.90;;;14.63;100.00;101189.06;5097320;23;20037;-75
2022/08/29 06:19:54;;;;;;;9.38;3.65;;;15.30;99.90;;;14.82;100.00;101212.53;5123257;23;20044;-75
2022/08/29 06:21:55;;;;;;;6.35;3.45;;;15.40;99.90;;;14.71;100.00;101191.66;5097018;23;20020;-75
2022/08/29 06:23:56;;;;;;;5.75;3.25;;;15.40;99.90;;;14.69;100.00;101177.75;5123430;23;20370;-75
2022/08/29 06:25:58;;;;;;;6.68;3.63;;;15.50;99.90;;;14.85;100.00;101196.25;5097022;23;20013;-75
2022/08/29 06:27:59;;;;;;;6.57;3.28;;;15.50;99.90;;;14.81;100.00;101184.34;5097340;23;20029;-75
2022/08/29 06:30:00;;;;;;;4.70;2.95;;;15.60;99.90;;;15.03;100.00;101220.75;5123330;23;20008;-75
2022/08/29 06:32:00;;;;;;;7.38;3.42;;;15.60;99.90;;;15.13;100.00;101224.03;5123323;23;20001;-75
2022/08/29 06:34:04;;;;;;;6.25;3.33;;;15.70;99.90;;;15.06;100.00;101207.13;5123045;23;20340;-75
2022/08/29 06:36:07;;;;;;;9.25;3.28;;;15.70;99.90;;;15.21;100.00;101221.31;5096959;23;20015;-75
2022/08/29 06:38:08;;;;;;;6.43;2.97;;;15.80;99.90;;;15.17;100.00;101211.22;5097434;23;20006;-75
2022/08/29 06:40:10;;;;;;;6.45;3.72;;;15.90;99.90;;;15.22;100.00;101207.03;5123358;23;20237;-75
2022/08/29 06:42:11;;;;;;;6.50;3.17;;;15.90;99.90;;;15.32;100.00;101212.16;5121801;23;20055;-75
2022/08/29 06:44:12;;;;;;;5.53;3.13;;;16.00;99.90;;;15.49;100.00;101229.69;5123330;23;20005;-75
2022/08/29 06:46:24;;;;;;;5.68;2.80;;;16.10;99.90;;;15.61;100.00;101232.75;5123103;23;20012;-75
2022/08/29 06:48:25;;;;;;;6.25;3.35;;;16.10;99.90;;;15.56;100.00;101208.53;5122997;23;20399;-75
2022/08/29 06:50:27;;;;;;;5.75;2.97;;;16.20;99.90;;;15.58;100.00;101204.69;5121572;23;20013;-75
2022/08/29 06:52:28;;;;;;;5.35;3.20;;;16.30;99.90;;;15.66;100.00;101198.47;5123166;23;20001;-75
2022/08/29 06:54:29;;;;;;;5.55;3.17;;;16.30;99.90;;;15.85;98.69;101216.63;5123312;23;20009;-75
2022/08/29 06:56:31;;;;;;;6.00;3.22;;;16.40;99.90;;;15.83;98.62;101206.13;5072582;23;20006;-75
2022/08/29 06:58:33;;;;;;;8.15;3.70;;;16.50;99.90;;;15.93;96.79;101206.72;5096979;23;20032;-75
2022/08/29 07:00:34;;;;;;;5.22;2.88;;;16.60;99.90;;;16.02;97.21;101210.97;5123157;23;20438;-75
2022/08/29 07:02:35;;;;;;;5.68;2.78;;;16.70;99.90;;;16.03;97.08;101198.50;5123146;23;20017;-75
2022/08/29 07:04:36;;;;;;;5.13;2.85;;;16.70;99.90;;;16.14;96.63;101208.72;5122885;23;20433;-75
2022/08/29 07:06:37;;;;;;;8.77;3.17;;;16.80;99.90;;;16.18;95.28;101193.19;5122985;23;20079;-75
2022/08/29 07:08:39;;;;;;;6.28;2.70;;;16.90;99.90;;;16.35;94.43;101194.69;5072756;23;20453;-75
2022/08/29 07:10:44;;;;;;;5.68;3.00;;;17.00;99.90;;;16.42;93.41;101190.28;5097027;23;20418;-75
2022/08/29 07:12:45;;;;;;;4.40;2.85;;;17.10;99.90;;;16.45;93.10;101185.44;5122809;23;20123;-75
2022/08/29 07:14:46;;;;;;;5.18;2.78;;;17.20;99.90;;;16.61;95.21;101200.41;5072697;23;20379;-75
2022/08/29 07:16:47;;;;;;;6.05;2.90;;;17.20;99.90;;;16.60;94.15;101188.13;5097004;23;20029;-75
2022/08/29 07:18:50;;;;;;;5.32;2.85;;;17.30;99.90;;;16.62;93.99;101183.44;5096397;23;20465;-76
2022/08/29 07:20:53;;;;;;;6.07;3.03;;;17.30;99.90;;;16.72;92.43;101183.16;5123147;23;20336;-75
2022/08/29 07:22:55;;;;;;;5.28;2.40;;;17.40;99.90;;;16.91;91.24;101204.72;5123042;23;20174;-75
2022/08/29 07:24:56;;;;;;;4.95;2.60;;;17.50;99.90;;;16.90;92.29;101197.75;5122806;23;20008;-75
2022/08/29 07:26:57;;;;;;;6.65;2.58;;;17.60;99.90;;;16.87;91.22;101184.81;5096886;23;20001;-75
2022/08/29 07:29:04;;;;;;;6.50;2.60;;;17.60;99.90;;;17.00;89.97;101187.59;5123318;23;20008;-75
2022/08/29 07:31:05;;;;;;;4.28;2.55;;;17.70;99.90;;;17.07;91.03;101185.84;5097254;23;20013;-75
2022/08/29 07:33:06;;;;;;;5.47;2.72;;;17.70;99.90;;;17.07;91.92;101174.38;5122955;23;20080;-75
2022/08/29 07:35:08;;;;;;;5.38;2.53;;;17.80;99.90;;;17.27;91.33;101204.72;5122498;23;20319;-75
2022/08/29 07:37:09;;;;;;;10.32;3.10;;;17.80;99.90;;;17.17;89.35;101179.41;5096995;23;20041;-75
2022/08/29 07:39:16;;;;;;;6.65;2.50;;;17.90;99.90;;;17.23;89.10;101181.31;5122969;23;20016;-75
2022/08/29 07:41:20;;;;;;;6.88;3.15;;;17.90;99.90;;;17.40;88.76;101191.56;5122959;23;20032;-75
2022/08/29 07:43:21;;;;;;;3.63;2.28;;;18.00;99.90;;;17.44;87.94;101181.34;5122974;23;20005;-75
2022/08/29 07:45:22;;;;;;;6.63;2.40;;;18.20;99.90;;;17.68;87.70;101208.47;5096867;23;20010;-75
2022/08/29 07:47:25;;;;;;;4.75;2.42;;;18.20;99.90;;;17.63;86.21;101181.56;5097284;23;20357;-75
2022/08/29 07:49:31;;;;;;;6.78;2.15;;;18.40;99.90;;;17.81;84.85;101196.28;5122849;23;20008;-75
2022/08/29 07:51:33;;;;;;;5.07;2.42;;;18.50;99.90;;;17.82;83.93;101184.59;5123265;23;20001;-75
2022/08/29 07:53:37;;;;;;;3.67;2.05;;;18.50;99.90;;;17.98;84.44;101187.00;5122953;23;20005;-75
2022/08/29 07:55:38;;;;;;;3.60;2.03;;;18.70;99.90;;;18.03;84.84;101190.72;5122983;23;20032;-75
2022/08/29 07:57:39;;;;;;;5.20;2.58;;;18.80;99.90;;;18.11;84.18;101195.91;5122803;23;20016;-75
2022/08/29 07:59:40;;;;;;;5.78;2.25;;;18.80;99.90;;;18.30;82.40;101209.63;5123014;23;20005;-75
2022/08/29 08:01:41;;;;;;;5.80;2.40;;;18.90;99.90;;;18.27;79.71;101181.47;5072701;23;20461;-75
2022/08/29 08:03:42;;;;;;;5.45;2.40;;;19.00;99.90;;;18.60;78.31;101211.91;5122990;23;20005;-75
2022/08/29 08:05:43;;;;;;;3.85;2.17;;;19.10;99.90;;;18.59;77.57;101199.56;5097118;23;20492;-75
2022/08/29 08:07:44;;;;;;;8.95;2.40;;;19.20;99.90;;;18.80;76.55;101209.34;5072898;23;20013;-75
2022/08/29 08:09:47;;;;;;;6.05;2.40;;;19.30;99.90;;;18.73;76.34;101193.25;5096293;23;20005;-75
2022/08/29 08:11:48;;;;;;;6.57;2.15;;;19.40;99.90;;;18.84;76.77;101193.72;5122921;23;20005;-75
2022/08/29 08:13:51;;;;;;;5.50;2.30;;;19.50;99.90;;;19.05;76.86;101218.50;5072491;23;20038;-75
2022/08/29 08:15:54;;;;;;;5.40;2.70;;;19.50;99.90;;;18.98;76.75;101198.09;5072992;23;20017;-75
2022/08/29 08:17:55;;;;;;;7.35;2.10;;;19.60;99.90;;;19.25;76.90;101229.28;5073257;23;20014;-75
2022/08/29 08:19:56;;;;;;;4.13;2.00;;;19.70;99.90;;;19.17;77.03;101216.91;5096146;23;20331;-75
2022/08/29 08:21:58;;;;;;;6.18;2.55;;;19.80;99.90;;;19.12;77.13;101199.78;5096718;23;20060;-75
2022/08/29 08:23:59;;;;;;;6.68;2.33;;;19.70;99.90;;;19.21;76.59;101211.97;5096809;23;20084;-75
2022/08/29 08:26:00;;;;;;;3.25;1.80;;;19.80;99.90;;;19.24;77.31;101204.38;5096797;23;20044;-75
2022/08/29 08:28:02;;;;;;;6.18;2.13;;;19.90;99.90;;;19.36;77.58;101223.31;5072496;23;20009;-75